createdAt,value
2022-08-11T00:00:17.256Z,30.037
2022-08-11T00:05:17.401Z,30.035
2022-08-11T00:10:17.437Z,30.035
2022-08-11T00:15:17.473Z,30.037
2022-08-11T00:20:17.469Z,30.037
2022-08-11T00:25:17.298Z,30.038
2022-08-11T00:30:17.404Z,30.041
2022-08-11T00:35:50.943Z,30.042
2022-08-11T00:40:17.326Z,30.043
2022-08-11T00:45:15.399Z,30.045
2022-08-11T00:50:15.459Z,30.051
2022-08-11T00:55:15.394Z,30.051
2022-08-11T01:00:15.472Z,30.049
2022-08-11T01:05:15.414Z,30.053
2022-08-11T01:10:15.550Z,30.055
2022-08-11T01:15:15.415Z,30.054
2022-08-11T01:20:47.205Z,30.056
2022-08-11T01:25:15.442Z,30.056
2022-08-11T01:30:15.539Z,30.056
2022-08-11T01:35:15.547Z,30.056
2022-08-11T01:40:15.489Z,30.053
2022-08-11T01:45:15.465Z,30.054
2022-08-11T01:50:15.519Z,30.055
2022-08-11T01:55:15.543Z,30.055
2022-08-11T02:00:15.567Z,30.052
2022-08-11T02:05:15.503Z,30.050
2022-08-11T02:10:15.511Z,30.048
2022-08-11T02:15:15.572Z,30.047
2022-08-11T02:20:15.600Z,30.047
2022-08-11T02:25:17.092Z,30.049
2022-08-11T02:30:15.649Z,30.048
2022-08-11T02:35:15.631Z,30.045
2022-08-11T02:40:15.811Z,30.047
2022-08-11T02:45:15.574Z,30.043
2022-08-11T02:50:15.721Z,30.043
2022-08-11T02:55:48.898Z,30.041
2022-08-11T03:00:15.861Z,30.040
2022-08-11T03:05:15.662Z,30.036
2022-08-11T03:10:15.681Z,30.036
2022-08-11T03:15:15.647Z,30.037
2022-08-11T03:20:15.786Z,30.037
2022-08-11T03:25:15.816Z,30.033
2022-08-11T03:30:15.788Z,30.038
2022-08-11T03:35:19.825Z,30.036
2022-08-11T03:40:15.896Z,30.035
2022-08-11T03:45:15.850Z,30.037
2022-08-11T03:50:17.200Z,30.036
2022-08-11T03:55:15.822Z,30.035
2022-08-11T04:00:16.958Z,30.033
2022-08-11T04:05:16.954Z,30.034
2022-08-11T04:10:16.768Z,30.034
2022-08-11T04:15:16.798Z,30.034
2022-08-11T04:20:16.881Z,30.035
2022-08-11T04:25:16.848Z,30.033
2022-08-11T04:30:16.938Z,30.030
2022-08-11T04:35:16.883Z,30.031
2022-08-11T04:40:16.831Z,30.030
2022-08-11T04:45:16.942Z,30.026
2022-08-11T04:50:17.019Z,30.033
2022-08-11T04:55:16.900Z,30.036
2022-08-11T05:00:16.943Z,30.036
2022-08-11T05:05:16.936Z,30.033
2022-08-11T05:10:16.992Z,30.030
2022-08-11T05:15:16.993Z,30.025
2022-08-11T05:20:16.907Z,30.023
2022-08-11T05:26:43.343Z,30.031
2022-08-11T05:26:46.486Z,30.031
2022-08-11T05:30:17.027Z,30.026
2022-08-11T05:36:00.733Z,30.026
2022-08-11T05:40:17.038Z,30.020
2022-08-11T05:45:17.031Z,30.020
2022-08-11T05:50:16.968Z,30.021
2022-08-11T05:55:17.152Z,30.022
2022-08-11T06:00:17.020Z,30.019
2022-08-11T06:05:17.066Z,30.013
2022-08-11T06:10:17.150Z,30.008
2022-08-11T06:15:17.107Z,30.009
2022-08-11T06:20:17.107Z,30.007
2022-08-11T06:25:17.202Z,30.008
2022-08-11T06:30:17.114Z,30.007
2022-08-11T06:35:17.375Z,30.005
2022-08-11T06:40:17.147Z,30.004
2022-08-11T06:45:17.086Z,30.004
2022-08-11T06:50:17.192Z,30.005
2022-08-11T06:55:58.064Z,30.006
2022-08-11T07:00:17.206Z,30.008
2022-08-11T07:05:17.444Z,30.007
2022-08-11T07:10:17.205Z,30.006
2022-08-11T07:15:15.627Z,30.004
2022-08-11T07:20:17.283Z,29.998
2022-08-11T07:25:17.263Z,29.998
2022-08-11T07:30:17.257Z,29.993
2022-08-11T07:35:17.246Z,29.990
2022-08-11T07:40:17.429Z,29.987
2022-08-11T07:45:17.290Z,29.989
2022-08-11T07:50:17.404Z,29.984
2022-08-11T07:55:17.582Z,29.983
2022-08-11T08:00:17.293Z,29.980
2022-08-11T08:05:17.333Z,29.982
2022-08-11T08:10:17.398Z,29.980
2022-08-11T08:15:17.344Z,29.979
2022-08-11T08:20:17.391Z,29.974
2022-08-11T08:25:17.304Z,29.974
2022-08-11T08:30:17.365Z,29.977
2022-08-11T08:35:17.370Z,29.974
2022-08-11T08:40:17.398Z,29.973
2022-08-11T08:45:15.383Z,29.972
2022-08-11T08:50:16.742Z,29.972
2022-08-11T08:55:15.447Z,29.970
2022-08-11T09:00:19.398Z,29.966
2022-08-11T09:05:15.439Z,29.967
2022-08-11T09:10:15.475Z,29.967
2022-08-11T09:15:19.898Z,29.963
2022-08-11T09:20:15.448Z,29.963
2022-08-11T09:25:15.411Z,29.958
2022-08-11T09:30:15.429Z,29.955
2022-08-11T09:35:15.516Z,29.957
2022-08-11T09:40:15.649Z,29.958
2022-08-11T09:45:15.542Z,29.958
2022-08-11T09:50:15.501Z,29.959
2022-08-11T09:55:15.491Z,29.959
2022-08-11T10:00:15.611Z,29.958
2022-08-11T10:05:15.565Z,29.953
2022-08-11T10:10:15.542Z,29.958
2022-08-11T10:15:15.710Z,29.959
2022-08-11T10:20:15.531Z,29.958
2022-08-11T10:25:15.569Z,29.961
2022-08-11T10:30:15.822Z,29.960
2022-08-11T10:35:15.689Z,29.962
2022-08-11T10:40:15.649Z,29.963
2022-08-11T10:45:15.689Z,29.960
2022-08-11T10:50:15.618Z,29.962
2022-08-11T10:55:15.690Z,29.960
2022-08-11T11:00:15.713Z,29.960
2022-08-11T11:05:15.646Z,29.963
2022-08-11T11:10:15.849Z,29.966
2022-08-11T11:15:17.746Z,29.962
2022-08-11T11:20:37.038Z,29.963
2022-08-11T11:25:15.825Z,29.962
2022-08-11T11:30:15.682Z,29.960
2022-08-11T11:35:15.865Z,29.960
2022-08-11T11:40:15.968Z,29.958
2022-08-11T11:45:22.709Z,29.958
2022-08-11T11:50:15.894Z,29.958
2022-08-11T11:55:15.868Z,29.960
2022-08-11T12:00:15.769Z,29.956
2022-08-11T12:05:15.813Z,29.956
2022-08-11T12:10:15.802Z,29.957
2022-08-11T12:15:15.904Z,29.953
2022-08-11T12:20:33.786Z,29.955
2022-08-11T12:25:15.889Z,29.957
2022-08-11T12:30:15.846Z,29.954
2022-08-11T12:35:15.896Z,29.957
2022-08-11T12:40:43.711Z,29.959
2022-08-11T12:45:21.923Z,29.956
2022-08-11T12:50:22.610Z,29.958
2022-08-11T12:55:15.904Z,29.957
2022-08-11T13:00:15.971Z,29.958
2022-08-11T13:05:15.910Z,29.955
2022-08-11T13:10:16.779Z,29.955
2022-08-11T13:15:15.963Z,29.949
2022-08-11T13:20:16.161Z,29.950
2022-08-11T13:25:15.982Z,29.951
2022-08-11T13:30:16.037Z,29.951
2022-08-11T13:35:16.049Z,29.949
2022-08-11T13:40:20.403Z,29.948
2022-08-11T13:45:16.048Z,29.947
2022-08-11T13:50:16.114Z,29.949
2022-08-11T13:55:50.802Z,29.951
2022-08-11T14:00:26.947Z,29.949
2022-08-11T14:05:16.098Z,29.952
2022-08-11T14:10:16.337Z,29.952
2022-08-11T14:15:16.101Z,29.951
2022-08-11T14:20:39.645Z,29.952
2022-08-11T14:25:16.052Z,29.952
2022-08-11T14:30:16.094Z,29.953
2022-08-11T14:35:16.207Z,29.948
2022-08-11T14:40:16.158Z,29.950
2022-08-11T14:45:16.287Z,29.948
2022-08-11T14:50:16.245Z,29.949
2022-08-11T14:55:16.182Z,29.947
2022-08-11T15:00:16.309Z,29.948
2022-08-11T15:05:16.174Z,29.944
2022-08-11T15:10:16.196Z,29.943
2022-08-11T15:15:16.293Z,29.948
2022-08-11T15:20:16.267Z,29.945
2022-08-11T15:25:16.409Z,29.946
2022-08-11T15:30:26.856Z,29.949
2022-08-11T15:35:16.301Z,29.951
2022-08-11T15:40:32.129Z,29.948
2022-08-11T15:45:16.428Z,29.949
2022-08-11T15:50:16.275Z,29.944
2022-08-11T15:55:16.390Z,29.945
2022-08-11T16:00:16.274Z,29.946
2022-08-11T16:05:46.101Z,29.946
2022-08-11T16:10:19.105Z,29.940
2022-08-11T16:15:20.044Z,29.939
2022-08-11T16:20:16.359Z,29.937
2022-08-11T16:27:01.381Z,29.936
2022-08-11T16:27:08.362Z,29.936
2022-08-11T16:30:16.369Z,29.933
2022-08-11T16:35:16.567Z,29.933
2022-08-11T16:40:16.489Z,29.932
2022-08-11T16:45:16.422Z,29.931
2022-08-11T16:50:16.403Z,29.931
2022-08-11T16:55:45.604Z,29.933
2022-08-11T17:00:16.474Z,29.930
2022-08-11T17:05:16.454Z,29.930
2022-08-11T17:10:39.406Z,29.928
2022-08-11T17:15:16.497Z,29.930
2022-08-11T17:20:39.681Z,29.928
2022-08-11T17:25:16.466Z,29.926
2022-08-11T17:30:16.485Z,29.924
2022-08-11T17:35:16.544Z,29.921
2022-08-11T17:40:16.649Z,29.920
2022-08-11T17:45:16.484Z,29.917
2022-08-11T17:50:18.282Z,29.919
2022-08-11T17:55:16.487Z,29.915
2022-08-11T18:00:16.608Z,29.912
2022-08-11T18:05:16.563Z,29.912
2022-08-11T18:10:16.569Z,29.913
2022-08-11T18:15:16.669Z,29.913
2022-08-11T18:20:16.598Z,29.905
2022-08-11T18:25:16.602Z,29.911
2022-08-11T18:30:16.973Z,29.907
2022-08-11T18:35:16.671Z,29.903
2022-08-11T18:40:16.672Z,29.903
2022-08-11T18:45:16.701Z,29.903
2022-08-11T18:50:21.014Z,29.900
2022-08-11T18:55:16.736Z,29.901
2022-08-11T19:00:16.727Z,29.898
2022-08-11T19:05:16.795Z,29.895
2022-08-11T19:10:16.843Z,29.894
2022-08-11T19:15:16.775Z,29.894
2022-08-11T19:20:16.832Z,29.890
2022-08-11T19:25:19.909Z,29.890
2022-08-11T19:30:16.888Z,29.889
2022-08-11T19:35:17.213Z,29.885
2022-08-11T19:40:16.723Z,29.889
2022-08-11T19:45:16.754Z,29.888
2022-08-11T19:50:21.903Z,29.886
2022-08-11T19:55:16.800Z,29.885
2022-08-11T20:00:16.814Z,29.885
2022-08-11T20:05:16.924Z,29.880
2022-08-11T20:10:16.851Z,29.881
2022-08-11T20:15:16.840Z,29.881
2022-08-11T20:20:16.860Z,29.881
2022-08-11T20:25:16.874Z,29.882
2022-08-11T20:30:16.891Z,29.881
2022-08-11T20:35:17.051Z,29.883
2022-08-11T20:40:16.997Z,29.884
2022-08-11T20:45:16.896Z,29.880
2022-08-11T20:50:19.470Z,29.880
2022-08-11T20:55:19.298Z,29.881
2022-08-11T21:00:16.939Z,29.882
2022-08-11T21:05:19.730Z,29.880
2022-08-11T21:10:23.727Z,29.878
2022-08-11T21:15:38.918Z,29.879
2022-08-11T21:20:20.749Z,29.877
2022-08-11T21:25:17.004Z,29.877
2022-08-11T21:30:17.117Z,29.877
2022-08-11T21:35:17.054Z,29.880
2022-08-11T21:40:17.606Z,29.880
2022-08-11T21:45:17.073Z,29.878
2022-08-11T21:50:17.133Z,29.878
2022-08-11T21:55:17.023Z,29.878
2022-08-11T22:00:17.085Z,29.875
2022-08-11T22:05:17.084Z,29.876
2022-08-11T22:10:40.178Z,29.875
2022-08-11T22:15:17.347Z,29.877
2022-08-11T22:20:17.066Z,29.876
2022-08-11T22:25:18.521Z,29.877
2022-08-11T22:30:17.149Z,29.880
2022-08-11T22:35:17.158Z,29.878
2022-08-11T22:40:17.152Z,29.879
2022-08-11T22:45:17.255Z,29.880
2022-08-11T22:50:17.212Z,29.879
2022-08-11T22:55:17.226Z,29.879
2022-08-11T23:00:17.201Z,29.881
2022-08-11T23:05:17.226Z,29.885
2022-08-11T23:10:18.083Z,29.883
2022-08-11T23:15:17.210Z,29.883
2022-08-11T23:20:28.383Z,29.885
2022-08-11T23:25:18.053Z,29.885
2022-08-11T23:30:19.014Z,29.888
2022-08-11T23:35:38.413Z,29.889
2022-08-11T23:40:17.433Z,29.890
2022-08-11T23:45:22.283Z,29.890
2022-08-11T23:50:17.394Z,29.890
2022-08-11T23:55:17.256Z,29.890
